sensor_id;sensor_type;location;lat;lon;timestamp;P1;durP1;ratioP1;P2;durP2;ratioP2
32746;SDS011;19118;50.860;13.662;2022-08-21T00:05:00;124.03;;;52.37;;
32746;SDS011;19118;50.860;13.662;2022-08-21T00:10:00;119.68;;;50.67;;
32746;SDS011;19118;50.860;13.662;2022-08-21T00:15:01;106.90;;;48.78;;
32746;SDS011;19118;50.860;13.662;2022-08-21T00:20:03;112.68;;;48.88;;
32746;SDS011;19118;50.860;13.662;2022-08-21T00:25:06;138.68;;;51.60;;
32746;SDS011;19118;50.860;13.662;2022-08-21T00:30:08;140.98;;;53.17;;
32746;SDS011;19118;50.860;13.662;2022-08-21T00:35:12;168.98;;;57.67;;
32746;SDS011;19118;50.860;13.662;2022-08-21T00:40:16;147.73;;;56.67;;
32746;SDS011;19118;50.860;13.662;2022-08-21T00:45:20;136.60;;;56.60;;
32746;SDS011;19118;50.860;13.662;2022-08-21T00:50:22;157.85;;;56.38;;
32746;SDS011;19118;50.860;13.662;2022-08-21T00:55:25;141.73;;;63.05;;
32746;SDS011;19118;50.860;13.662;2022-08-21T01:00:29;194.20;;;59.70;;
32746;SDS011;19118;50.860;13.662;2022-08-21T01:05:32;94.85;;;35.55;;
32746;SDS011;19118;50.860;13.662;2022-08-21T01:10:33;51.47;;;23.83;;
32746;SDS011;19118;50.860;13.662;2022-08-21T01:15:36;87.93;;;25.70;;
32746;SDS011;19118;50.860;13.662;2022-08-21T01:20:40;107.40;;;34.25;;
32746;SDS011;19118;50.860;13.662;2022-08-21T01:25:43;205.40;;;40.33;;
32746;SDS011;19118;50.860;13.662;2022-08-21T01:30:44;93.23;;;34.13;;
32746;SDS011;19118;50.860;13.662;2022-08-21T01:35:44;80.78;;;35.25;;
32746;SDS011;19118;50.860;13.662;2022-08-21T01:40:44;114.27;;;45.97;;
32746;SDS011;19118;50.860;13.662;2022-08-21T01:45:47;170.93;;;57.38;;
32746;SDS011;19118;50.860;13.662;2022-08-21T01:50:47;214.65;;;36.92;;
32746;SDS011;19118;50.860;13.662;2022-08-21T01:55:48;107.95;;;26.02;;
32746;SDS011;19118;50.860;13.662;2022-08-21T02:00:48;66.28;;;27.25;;
32746;SDS011;19118;50.860;13.662;2022-08-21T02:05:53;73.82;;;27.60;;
32746;SDS011;19118;50.860;13.662;2022-08-21T02:10:54;40.88;;;18.35;;
32746;SDS011;19118;50.860;13.662;2022-08-21T02:15:54;35.15;;;16.02;;
32746;SDS011;19118;50.860;13.662;2022-08-21T02:20:55;23.98;;;13.30;;
32746;SDS011;19118;50.860;13.662;2022-08-21T02:25:59;25.67;;;13.75;;
32746;SDS011;19118;50.860;13.662;2022-08-21T02:31:01;36.47;;;14.82;;
32746;SDS011;19118;50.860;13.662;2022-08-21T02:36:02;29.70;;;14.07;;
32746;SDS011;19118;50.860;13.662;2022-08-21T02:41:04;46.53;;;15.60;;
32746;SDS011;19118;50.860;13.662;2022-08-21T02:46:10;49.38;;;17.17;;
32746;SDS011;19118;50.860;13.662;2022-08-21T02:51:13;50.85;;;17.00;;
32746;SDS011;19118;50.860;13.662;2022-08-21T02:56:20;48.70;;;17.83;;
32746;SDS011;19118;50.860;13.662;2022-08-21T03:01:22;55.20;;;18.80;;
32746;SDS011;19118;50.860;13.662;2022-08-21T03:06:22;56.47;;;19.05;;
32746;SDS011;19118;50.860;13.662;2022-08-21T03:11:24;56.22;;;19.98;;
32746;SDS011;19118;50.860;13.662;2022-08-21T03:16:26;58.03;;;19.42;;
32746;SDS011;19118;50.860;13.662;2022-08-21T03:21:26;58.33;;;18.93;;
32746;SDS011;19118;50.860;13.662;2022-08-21T03:26:27;53.72;;;19.77;;
32746;SDS011;19118;50.860;13.662;2022-08-21T03:31:28;57.53;;;18.50;;
32746;SDS011;19118;50.860;13.662;2022-08-21T03:36:30;71.20;;;20.65;;
32746;SDS011;19118;50.860;13.662;2022-08-21T03:41:31;57.00;;;20.30;;
32746;SDS011;19118;50.860;13.662;2022-08-21T03:46:31;54.47;;;18.47;;
32746;SDS011;19118;50.860;13.662;2022-08-21T03:51:31;62.33;;;20.87;;
32746;SDS011;19118;50.860;13.662;2022-08-21T03:56:33;53.70;;;18.73;;
32746;SDS011;19118;50.860;13.662;2022-08-21T04:01:33;57.40;;;19.77;;
32746;SDS011;19118;50.860;13.662;2022-08-21T04:06:34;51.85;;;18.95;;
32746;SDS011;19118;50.860;13.662;2022-08-21T04:11:34;46.97;;;18.00;;
32746;SDS011;19118;50.860;13.662;2022-08-21T04:16:35;49.93;;;17.97;;
32746;SDS011;19118;50.860;13.662;2022-08-21T04:21:35;42.17;;;16.80;;
32746;SDS011;19118;50.860;13.662;2022-08-21T04:26:38;39.70;;;16.55;;
32746;SDS011;19118;50.860;13.662;2022-08-21T04:31:39;34.60;;;15.52;;
32746;SDS011;19118;50.860;13.662;2022-08-21T04:36:39;57.38;;;20.13;;
32746;SDS011;19118;50.860;13.662;2022-08-21T04:41:40;61.53;;;20.27;;
32746;SDS011;19118;50.860;13.662;2022-08-21T04:46:41;51.85;;;19.17;;
32746;SDS011;19118;50.860;13.662;2022-08-21T04:51:41;58.13;;;19.97;;
32746;SDS011;19118;50.860;13.662;2022-08-21T04:56:45;55.92;;;19.73;;
32746;SDS011;19118;50.860;13.662;2022-08-21T05:01:49;57.85;;;20.35;;
32746;SDS011;19118;50.860;13.662;2022-08-21T05:06:51;57.42;;;19.00;;
32746;SDS011;19118;50.860;13.662;2022-08-21T05:11:54;41.83;;;18.40;;
32746;SDS011;19118;50.860;13.662;2022-08-21T05:16:55;44.83;;;17.63;;
32746;SDS011;19118;50.860;13.662;2022-08-21T05:21:56;41.35;;;16.77;;
32746;SDS011;19118;50.860;13.662;2022-08-21T05:26:57;56.70;;;20.35;;
32746;SDS011;19118;50.860;13.662;2022-08-21T05:31:58;45.38;;;19.42;;
32746;SDS011;19118;50.860;13.662;2022-08-21T05:36:58;45.33;;;18.33;;
32746;SDS011;19118;50.860;13.662;2022-08-21T05:41:59;42.57;;;18.83;;
32746;SDS011;19118;50.860;13.662;2022-08-21T05:47:03;55.77;;;22.73;;
32746;SDS011;19118;50.860;13.662;2022-08-21T05:52:05;53.40;;;22.60;;
32746;SDS011;19118;50.860;13.662;2022-08-21T05:57:05;66.40;;;27.63;;
32746;SDS011;19118;50.860;13.662;2022-08-21T06:02:06;83.03;;;35.23;;
32746;SDS011;19118;50.860;13.662;2022-08-21T06:07:08;96.13;;;36.33;;
32746;SDS011;19118;50.860;13.662;2022-08-21T06:12:09;72.18;;;32.22;;
32746;SDS011;19118;50.860;13.662;2022-08-21T06:17:12;67.57;;;31.60;;
32746;SDS011;19118;50.860;13.662;2022-08-21T06:22:14;70.80;;;34.25;;
32746;SDS011;19118;50.860;13.662;2022-08-21T06:27:15;75.87;;;35.07;;
32746;SDS011;19118;50.860;13.662;2022-08-21T06:32:17;71.30;;;34.65;;
32746;SDS011;19118;50.860;13.662;2022-08-21T06:37:17;72.40;;;33.87;;
32746;SDS011;19118;50.860;13.662;2022-08-21T06:42:18;55.57;;;32.53;;
32746;SDS011;19118;50.860;13.662;2022-08-21T06:47:18;57.33;;;32.10;;
32746;SDS011;19118;50.860;13.662;2022-08-21T06:52:18;51.13;;;29.73;;
32746;SDS011;19118;50.860;13.662;2022-08-21T06:57:19;51.97;;;30.60;;
32746;SDS011;19118;50.860;13.662;2022-08-21T07:02:19;49.47;;;29.42;;
32746;SDS011;19118;50.860;13.662;2022-08-21T07:07:19;44.53;;;29.33;;
32746;SDS011;19118;50.860;13.662;2022-08-21T07:12:20;45.53;;;27.20;;
32746;SDS011;19118;50.860;13.662;2022-08-21T07:17:20;36.27;;;24.97;;
32746;SDS011;19118;50.860;13.662;2022-08-21T07:22:20;44.50;;;25.77;;
32746;SDS011;19118;50.860;13.662;2022-08-21T07:27:21;38.93;;;25.33;;
32746;SDS011;19118;50.860;13.662;2022-08-21T07:32:21;36.08;;;23.63;;
32746;SDS011;19118;50.860;13.662;2022-08-21T07:37:21;29.27;;;22.63;;
32746;SDS011;19118;50.860;13.662;2022-08-21T07:42:22;30.40;;;22.97;;
32746;SDS011;19118;50.860;13.662;2022-08-21T07:47:22;32.03;;;22.10;;
32746;SDS011;19118;50.860;13.662;2022-08-21T07:52:23;28.38;;;19.95;;
32746;SDS011;19118;50.860;13.662;2022-08-21T07:57:23;37.60;;;20.30;;
32746;SDS011;19118;50.860;13.662;2022-08-21T08:02:24;27.33;;;20.83;;
32746;SDS011;19118;50.860;13.662;2022-08-21T08:07:26;36.05;;;22.35;;
32746;SDS011;19118;50.860;13.662;2022-08-21T08:12:26;32.57;;;19.90;;
32746;SDS011;19118;50.860;13.662;2022-08-21T08:17:30;32.15;;;20.27;;
32746;SDS011;19118;50.860;13.662;2022-08-21T08:22:32;30.70;;;19.95;;
32746;SDS011;19118;50.860;13.662;2022-08-21T08:27:34;29.27;;;18.40;;
32746;SDS011;19118;50.860;13.662;2022-08-21T08:32:35;29.37;;;20.93;;
32746;SDS011;19118;50.860;13.662;2022-08-21T08:37:35;28.27;;;19.05;;
32746;SDS011;19118;50.860;13.662;2022-08-21T08:42:37;26.65;;;18.08;;
32746;SDS011;19118;50.860;13.662;2022-08-21T08:48:00;26.65;;;17.90;;
32746;SDS011;19118;50.860;13.662;2022-08-21T08:53:02;22.70;;;16.60;;
32746;SDS011;19118;50.860;13.662;2022-08-21T08:58:05;25.83;;;16.95;;
32746;SDS011;19118;50.860;13.662;2022-08-21T09:03:07;24.23;;;15.90;;
32746;SDS011;19118;50.860;13.662;2022-08-21T09:08:20;25.25;;;13.73;;
32746;SDS011;19118;50.860;13.662;2022-08-21T09:19:26;27.42;;;15.63;;
32746;SDS011;19118;50.860;13.662;2022-08-21T09:25:12;20.90;;;13.13;;
32746;SDS011;19118;50.860;13.662;2022-08-21T09:30:15;20.80;;;11.50;;
32746;SDS011;19118;50.860;13.662;2022-08-21T09:35:16;19.05;;;11.88;;
32746;SDS011;19118;50.860;13.662;2022-08-21T09:45:35;15.35;;;7.75;;
32746;SDS011;19118;50.860;13.662;2022-08-21T09:50:36;12.57;;;7.75;;
32746;SDS011;19118;50.860;13.662;2022-08-21T09:55:46;13.52;;;7.25;;
32746;SDS011;19118;50.860;13.662;2022-08-21T10:01:13;13.30;;;6.43;;
32746;SDS011;19118;50.860;13.662;2022-08-21T10:06:23;17.55;;;5.63;;
32746;SDS011;19118;50.860;13.662;2022-08-21T10:11:25;9.00;;;5.68;;
32746;SDS011;19118;50.860;13.662;2022-08-21T10:16:43;13.27;;;5.45;;
32746;SDS011;19118;50.860;13.662;2022-08-21T10:38:33;13.98;;;4.53;;
32746;SDS011;19118;50.860;13.662;2022-08-21T10:48:57;17.38;;;3.28;;
32746;SDS011;19118;50.860;13.662;2022-08-21T10:54:18;11.80;;;3.28;;
32746;SDS011;19118;50.860;13.662;2022-08-21T10:59:44;6.32;;;2.60;;
32746;SDS011;19118;50.860;13.662;2022-08-21T11:04:57;8.25;;;2.75;;
32746;SDS011;19118;50.860;13.662;2022-08-21T11:10:04;12.48;;;3.22;;
32746;SDS011;19118;50.860;13.662;2022-08-21T11:20:38;6.47;;;2.65;;
32746;SDS011;19118;50.860;13.662;2022-08-21T11:25:44;8.82;;;3.00;;
32746;SDS011;19118;50.860;13.662;2022-08-21T11:41:31;6.38;;;2.25;;
32746;SDS011;19118;50.860;13.662;2022-08-21T11:46:40;11.85;;;3.30;;
32746;SDS011;19118;50.860;13.662;2022-08-21T11:51:57;18.15;;;3.60;;
32746;SDS011;19118;50.860;13.662;2022-08-21T11:57:03;10.50;;;2.85;;
32746;SDS011;19118;50.860;13.662;2022-08-21T12:02:14;14.82;;;3.33;;
32746;SDS011;19118;50.860;13.662;2022-08-21T12:07:40;7.57;;;2.58;;
32746;SDS011;19118;50.860;13.662;2022-08-21T12:12:41;14.35;;;3.10;;
32746;SDS011;19118;50.860;13.662;2022-08-21T12:17:53;10.02;;;2.70;;
32746;SDS011;19118;50.860;13.662;2022-08-21T12:28:10;9.68;;;2.88;;
32746;SDS011;19118;50.860;13.662;2022-08-21T12:33:21;12.38;;;2.65;;
32746;SDS011;19118;50.860;13.662;2022-08-21T12:38:50;14.88;;;2.92;;
32746;SDS011;19118;50.860;13.662;2022-08-21T12:49:13;8.23;;;2.35;;
32746;SDS011;19118;50.860;13.662;2022-08-21T12:54:22;9.30;;;2.95;;
32746;SDS011;19118;50.860;13.662;2022-08-21T12:59:25;9.90;;;2.50;;
32746;SDS011;19118;50.860;13.662;2022-08-21T13:04:32;13.48;;;3.42;;
32746;SDS011;19118;50.860;13.662;2022-08-21T13:09:47;9.73;;;2.75;;
32746;SDS011;19118;50.860;13.662;2022-08-21T13:14:51;20.92;;;2.78;;
32746;SDS011;19118;50.860;13.662;2022-08-21T13:19:53;12.65;;;2.70;;
32746;SDS011;19118;50.860;13.662;2022-08-21T13:25:08;23.55;;;3.42;;
32746;SDS011;19118;50.860;13.662;2022-08-21T13:30:12;8.20;;;2.22;;
32746;SDS011;19118;50.860;13.662;2022-08-21T13:40:19;7.50;;;2.20;;
32746;SDS011;19118;50.860;13.662;2022-08-21T13:45:25;11.60;;;2.47;;
32746;SDS011;19118;50.860;13.662;2022-08-21T13:50:36;11.77;;;2.45;;
32746;SDS011;19118;50.860;13.662;2022-08-21T13:55:39;6.85;;;1.80;;
32746;SDS011;19118;50.860;13.662;2022-08-21T14:00:48;7.85;;;2.03;;
32746;SDS011;19118;50.860;13.662;2022-08-21T14:05:50;8.45;;;2.50;;
32746;SDS011;19118;50.860;13.662;2022-08-21T14:10:51;14.00;;;2.10;;
32746;SDS011;19118;50.860;13.662;2022-08-21T14:15:59;10.52;;;2.85;;
32746;SDS011;19118;50.860;13.662;2022-08-21T14:21:05;8.73;;;1.90;;
32746;SDS011;19118;50.860;13.662;2022-08-21T14:26:07;8.65;;;2.10;;
32746;SDS011;19118;50.860;13.662;2022-08-21T14:31:16;11.13;;;2.80;;
32746;SDS011;19118;50.860;13.662;2022-08-21T14:36:19;11.65;;;2.20;;
32746;SDS011;19118;50.860;13.662;2022-08-21T14:41:21;11.27;;;1.93;;
32746;SDS011;19118;50.860;13.662;2022-08-21T14:46:25;11.77;;;2.70;;
32746;SDS011;19118;50.860;13.662;2022-08-21T14:51:27;19.63;;;2.13;;
32746;SDS011;19118;50.860;13.662;2022-08-21T14:56:28;7.33;;;1.67;;
32746;SDS011;19118;50.860;13.662;2022-08-21T15:01:28;10.00;;;1.93;;
32746;SDS011;19118;50.860;13.662;2022-08-21T15:06:29;7.35;;;2.40;;
32746;SDS011;19118;50.860;13.662;2022-08-21T15:11:29;5.03;;;1.60;;
32746;SDS011;19118;50.860;13.662;2022-08-21T15:16:30;7.40;;;1.60;;
32746;SDS011;19118;50.860;13.662;2022-08-21T15:21:33;12.05;;;2.63;;
32746;SDS011;19118;50.860;13.662;2022-08-21T15:26:33;7.37;;;1.63;;
32746;SDS011;19118;50.860;13.662;2022-08-21T15:31:35;15.18;;;3.35;;
32746;SDS011;19118;50.860;13.662;2022-08-21T15:36:35;9.65;;;1.90;;
32746;SDS011;19118;50.860;13.662;2022-08-21T15:41:35;17.53;;;2.07;;
32746;SDS011;19118;50.860;13.662;2022-08-21T15:46:36;7.60;;;1.25;;
32746;SDS011;19118;50.860;13.662;2022-08-21T15:51:37;6.18;;;1.42;;
32746;SDS011;19118;50.860;13.662;2022-08-21T15:56:38;6.60;;;1.63;;
32746;SDS011;19118;50.860;13.662;2022-08-21T16:01:40;7.55;;;1.92;;
32746;SDS011;19118;50.860;13.662;2022-08-21T16:06:42;7.50;;;1.50;;
32746;SDS011;19118;50.860;13.662;2022-08-21T16:11:43;6.03;;;1.50;;
32746;SDS011;19118;50.860;13.662;2022-08-21T16:16:43;9.80;;;1.50;;
32746;SDS011;19118;50.860;13.662;2022-08-21T16:21:45;8.77;;;1.50;;
32746;SDS011;19118;50.860;13.662;2022-08-21T16:26:45;7.70;;;1.97;;
32746;SDS011;19118;50.860;13.662;2022-08-21T16:31:46;10.13;;;1.95;;
32746;SDS011;19118;50.860;13.662;2022-08-21T16:36:47;11.43;;;1.95;;
32746;SDS011;19118;50.860;13.662;2022-08-21T16:41:47;9.73;;;2.40;;
32746;SDS011;19118;50.860;13.662;2022-08-21T16:46:51;6.90;;;2.08;;
32746;SDS011;19118;50.860;13.662;2022-08-21T16:51:51;10.93;;;2.15;;
32746;SDS011;19118;50.860;13.662;2022-08-21T16:56:58;9.77;;;2.27;;
32746;SDS011;19118;50.860;13.662;2022-08-21T17:01:59;8.73;;;2.72;;
32746;SDS011;19118;50.860;13.662;2022-08-21T17:07:00;10.60;;;2.47;;
32746;SDS011;19118;50.860;13.662;2022-08-21T17:12:00;4.13;;;1.87;;
32746;SDS011;19118;50.860;13.662;2022-08-21T17:17:00;4.97;;;1.30;;
32746;SDS011;19118;50.860;13.662;2022-08-21T17:22:03;6.57;;;2.30;;
32746;SDS011;19118;50.860;13.662;2022-08-21T17:27:04;14.32;;;2.25;;
32746;SDS011;19118;50.860;13.662;2022-08-21T17:32:07;9.85;;;1.85;;
32746;SDS011;19118;50.860;13.662;2022-08-21T17:37:09;8.45;;;1.67;;
32746;SDS011;19118;50.860;13.662;2022-08-21T17:42:11;10.05;;;2.28;;
32746;SDS011;19118;50.860;13.662;2022-08-21T17:47:13;9.23;;;2.10;;
32746;SDS011;19118;50.860;13.662;2022-08-21T17:52:14;12.25;;;3.10;;
32746;SDS011;19118;50.860;13.662;2022-08-21T17:57:18;7.47;;;2.45;;
32746;SDS011;19118;50.860;13.662;2022-08-21T18:02:20;12.55;;;2.45;;
32746;SDS011;19118;50.860;13.662;2022-08-21T18:07:21;7.50;;;2.60;;
32746;SDS011;19118;50.860;13.662;2022-08-21T18:12:22;6.97;;;2.13;;
32746;SDS011;19118;50.860;13.662;2022-08-21T18:17:23;11.47;;;2.73;;
32746;SDS011;19118;50.860;13.662;2022-08-21T18:22:27;7.53;;;2.10;;
32746;SDS011;19118;50.860;13.662;2022-08-21T18:27:30;7.32;;;2.40;;
32746;SDS011;19118;50.860;13.662;2022-08-21T18:32:31;12.25;;;2.60;;
32746;SDS011;19118;50.860;13.662;2022-08-21T18:37:31;6.10;;;2.83;;
32746;SDS011;19118;50.860;13.662;2022-08-21T18:42:36;8.43;;;2.30;;
32746;SDS011;19118;50.860;13.662;2022-08-21T18:47:46;6.28;;;2.42;;
32746;SDS011;19118;50.860;13.662;2022-08-21T18:52:49;6.72;;;2.65;;
32746;SDS011;19118;50.860;13.662;2022-08-21T18:57:50;8.15;;;3.22;;
32746;SDS011;19118;50.860;13.662;2022-08-21T19:02:53;14.73;;;3.60;;
32746;SDS011;19118;50.860;13.662;2022-08-21T19:07:54;11.50;;;4.07;;
32746;SDS011;19118;50.860;13.662;2022-08-21T19:12:56;10.20;;;3.70;;
32746;SDS011;19118;50.860;13.662;2022-08-21T19:17:58;15.63;;;5.20;;
32746;SDS011;19118;50.860;13.662;2022-08-21T19:22:59;12.00;;;3.42;;
32746;SDS011;19118;50.860;13.662;2022-08-21T19:27:59;10.03;;;3.70;;
32746;SDS011;19118;50.860;13.662;2022-08-21T19:33:02;5.20;;;3.13;;
32746;SDS011;19118;50.860;13.662;2022-08-21T19:38:02;9.15;;;3.60;;
32746;SDS011;19118;50.860;13.662;2022-08-21T19:43:03;19.27;;;3.85;;
32746;SDS011;19118;50.860;13.662;2022-08-21T19:48:03;7.30;;;3.50;;
32746;SDS011;19118;50.860;13.662;2022-08-21T19:53:04;8.93;;;3.67;;
32746;SDS011;19118;50.860;13.662;2022-08-21T19:58:04;18.00;;;3.65;;
32746;SDS011;19118;50.860;13.662;2022-08-21T20:03:06;11.43;;;3.40;;
32746;SDS011;19118;50.860;13.662;2022-08-21T20:08:07;10.35;;;3.92;;
32746;SDS011;19118;50.860;13.662;2022-08-21T20:13:07;11.00;;;4.17;;
32746;SDS011;19118;50.860;13.662;2022-08-21T20:18:08;10.70;;;3.42;;
32746;SDS011;19118;50.860;13.662;2022-08-21T20:23:09;9.15;;;3.75;;
32746;SDS011;19118;50.860;13.662;2022-08-21T20:28:10;14.10;;;4.05;;
32746;SDS011;19118;50.860;13.662;2022-08-21T20:33:11;7.93;;;3.35;;
32746;SDS011;19118;50.860;13.662;2022-08-21T20:38:13;16.67;;;3.45;;
32746;SDS011;19118;50.860;13.662;2022-08-21T20:43:13;11.23;;;3.88;;
32746;SDS011;19118;50.860;13.662;2022-08-21T20:48:25;16.67;;;3.80;;
32746;SDS011;19118;50.860;13.662;2022-08-21T20:53:44;9.02;;;3.55;;
32746;SDS011;19118;50.860;13.662;2022-08-21T20:58:57;14.13;;;3.90;;
32746;SDS011;19118;50.860;13.662;2022-08-21T21:04:07;14.45;;;3.55;;
32746;SDS011;19118;50.860;13.662;2022-08-21T21:09:17;9.75;;;3.80;;
32746;SDS011;19118;50.860;13.662;2022-08-21T21:14:36;7.90;;;3.70;;
32746;SDS011;19118;50.860;13.662;2022-08-21T21:19:41;12.32;;;3.22;;
32746;SDS011;19118;50.860;13.662;2022-08-21T21:24:54;13.07;;;3.97;;
32746;SDS011;19118;50.860;13.662;2022-08-21T21:30:07;10.38;;;3.38;;
32746;SDS011;19118;50.860;13.662;2022-08-21T21:35:21;7.53;;;3.65;;
32746;SDS011;19118;50.860;13.662;2022-08-21T21:40:34;5.38;;;3.40;;
32746;SDS011;19118;50.860;13.662;2022-08-21T21:46:18;13.82;;;3.85;;
32746;SDS011;19118;50.860;13.662;2022-08-21T21:51:28;9.43;;;3.47;;
32746;SDS011;19118;50.860;13.662;2022-08-21T21:56:50;11.80;;;3.78;;
32746;SDS011;19118;50.860;13.662;2022-08-21T22:02:32;8.23;;;3.92;;
32746;SDS011;19118;50.860;13.662;2022-08-21T22:07:49;11.15;;;3.85;;
32746;SDS011;19118;50.860;13.662;2022-08-21T22:12:58;9.18;;;3.95;;
32746;SDS011;19118;50.860;13.662;2022-08-21T22:18:10;13.05;;;4.03;;
32746;SDS011;19118;50.860;13.662;2022-08-21T22:23:17;18.05;;;3.47;;
32746;SDS011;19118;50.860;13.662;2022-08-21T22:28:22;10.02;;;4.00;;
32746;SDS011;19118;50.860;13.662;2022-08-21T22:33:26;13.68;;;3.70;;
32746;SDS011;19118;50.860;13.662;2022-08-21T22:38:31;7.97;;;4.00;;
32746;SDS011;19118;50.860;13.662;2022-08-21T22:43:35;15.90;;;3.72;;
32746;SDS011;19118;50.860;13.662;2022-08-21T22:48:37;14.20;;;4.10;;
32746;SDS011;19118;50.860;13.662;2022-08-21T22:53:41;9.00;;;3.47;;
32746;SDS011;19118;50.860;13.662;2022-08-21T22:58:52;10.60;;;3.65;;
32746;SDS011;19118;50.860;13.662;2022-08-21T23:03:57;5.85;;;3.88;;
32746;SDS011;19118;50.860;13.662;2022-08-21T23:09:33;13.25;;;4.00;;
32746;SDS011;19118;50.860;13.662;2022-08-21T23:14:37;12.65;;;4.32;;
32746;SDS011;19118;50.860;13.662;2022-08-21T23:19:49;8.93;;;4.13;;
32746;SDS011;19118;50.860;13.662;2022-08-21T23:25:14;6.68;;;3.67;;
32746;SDS011;19118;50.860;13.662;2022-08-21T23:36:18;8.25;;;3.95;;
32746;SDS011;19118;50.860;13.662;2022-08-21T23:41:58;7.53;;;4.35;;
32746;SDS011;19118;50.860;13.662;2022-08-21T23:47:18;6.72;;;4.03;;
32746;SDS011;19118;50.860;13.662;2022-08-21T23:57:45;11.32;;;5.45;;
